sensor_id;sensor_type;location;lat;lon;timestamp;temperature;humidity
46356;DHT22;32066;49.474;11.106;2023-04-23T00:00:13;17.40;85.30
46356;DHT22;32066;49.474;11.106;2023-04-23T00:02:44;17.50;83.80
46356;DHT22;32066;49.474;11.106;2023-04-23T00:05:14;17.40;84.10
46356;DHT22;32066;49.474;11.106;2023-04-23T00:07:43;17.20;84.40
46356;DHT22;32066;49.474;11.106;2023-04-23T00:10:12;17.10;85.00
46356;DHT22;32066;49.474;11.106;2023-04-23T00:12:44;17.10;85.50
46356;DHT22;32066;49.474;11.106;2023-04-23T00:15:14;17.20;85.30
46356;DHT22;32066;49.474;11.106;2023-04-23T00:17:45;17.20;85.80
46356;DHT22;32066;49.474;11.106;2023-04-23T00:20:13;17.20;85.50
46356;DHT22;32066;49.474;11.106;2023-04-23T00:22:42;17.30;85.40
46356;DHT22;32066;49.474;11.106;2023-04-23T00:25:11;17.30;85.50
46356;DHT22;32066;49.474;11.106;2023-04-23T00:27:42;17.30;85.60
46356;DHT22;32066;49.474;11.106;2023-04-23T00:30:12;17.20;87.20
46356;DHT22;32066;49.474;11.106;2023-04-23T00:32:41;17.30;86.40
46356;DHT22;32066;49.474;11.106;2023-04-23T00:35:11;17.40;86.20
46356;DHT22;32066;49.474;11.106;2023-04-23T00:37:39;17.50;85.50
46356;DHT22;32066;49.474;11.106;2023-04-23T00:40:09;17.60;84.60
46356;DHT22;32066;49.474;11.106;2023-04-23T00:42:44;17.60;84.90
46356;DHT22;32066;49.474;11.106;2023-04-23T00:45:13;17.60;84.40
46356;DHT22;32066;49.474;11.106;2023-04-23T00:47:42;17.60;84.60
46356;DHT22;32066;49.474;11.106;2023-04-23T00:50:11;17.40;83.90
46356;DHT22;32066;49.474;11.106;2023-04-23T00:52:40;17.20;82.70
46356;DHT22;32066;49.474;11.106;2023-04-23T00:55:09;17.20;83.30
46356;DHT22;32066;49.474;11.106;2023-04-23T00:57:38;17.20;84.10
46356;DHT22;32066;49.474;11.106;2023-04-23T01:00:11;17.20;83.50
46356;DHT22;32066;49.474;11.106;2023-04-23T01:02:42;17.20;83.30
46356;DHT22;32066;49.474;11.106;2023-04-23T01:05:13;17.20;82.90
46356;DHT22;32066;49.474;11.106;2023-04-23T01:07:43;17.20;82.80
46356;DHT22;32066;49.474;11.106;2023-04-23T01:10:13;17.10;82.90
46356;DHT22;32066;49.474;11.106;2023-04-23T01:12:42;17.10;83.00
46356;DHT22;32066;49.474;11.106;2023-04-23T01:15:13;17.10;82.90
46356;DHT22;32066;49.474;11.106;2023-04-23T01:17:42;17.10;83.10
46356;DHT22;32066;49.474;11.106;2023-04-23T01:20:11;17.10;83.00
46356;DHT22;32066;49.474;11.106;2023-04-23T01:22:42;17.10;83.10
46356;DHT22;32066;49.474;11.106;2023-04-23T01:25:11;17.10;83.20
46356;DHT22;32066;49.474;11.106;2023-04-23T01:27:40;17.10;83.10
46356;DHT22;32066;49.474;11.106;2023-04-23T01:30:09;17.10;83.30
46356;DHT22;32066;49.474;11.106;2023-04-23T01:32:38;17.10;83.50
46356;DHT22;32066;49.474;11.106;2023-04-23T01:35:08;17.10;83.40
46356;DHT22;32066;49.474;11.106;2023-04-23T01:37:38;17.10;83.80
46356;DHT22;32066;49.474;11.106;2023-04-23T01:40:10;16.90;84.20
46356;DHT22;32066;49.474;11.106;2023-04-23T01:42:39;16.90;84.50
46356;DHT22;32066;49.474;11.106;2023-04-23T01:45:09;16.80;85.10
46356;DHT22;32066;49.474;11.106;2023-04-23T01:47:37;16.90;84.90
46356;DHT22;32066;49.474;11.106;2023-04-23T01:50:08;17.00;84.60
46356;DHT22;32066;49.474;11.106;2023-04-23T01:52:36;17.00;84.30
46356;DHT22;32066;49.474;11.106;2023-04-23T01:55:09;16.90;84.60
46356;DHT22;32066;49.474;11.106;2023-04-23T01:57:39;16.70;85.20
46356;DHT22;32066;49.474;11.106;2023-04-23T02:00:10;16.70;85.70
46356;DHT22;32066;49.474;11.106;2023-04-23T02:02:41;16.90;85.20
46356;DHT22;32066;49.474;11.106;2023-04-23T02:05:11;16.80;85.10
46356;DHT22;32066;49.474;11.106;2023-04-23T02:07:41;16.90;85.00
46356;DHT22;32066;49.474;11.106;2023-04-23T02:10:12;16.70;85.30
46356;DHT22;32066;49.474;11.106;2023-04-23T02:12:43;16.70;85.30
46356;DHT22;32066;49.474;11.106;2023-04-23T02:15:13;16.80;85.30
46356;DHT22;32066;49.474;11.106;2023-04-23T02:17:42;16.80;85.10
46356;DHT22;32066;49.474;11.106;2023-04-23T02:20:11;16.90;85.00
46356;DHT22;32066;49.474;11.106;2023-04-23T02:22:41;16.90;84.80
46356;DHT22;32066;49.474;11.106;2023-04-23T02:25:15;16.90;84.90
46356;DHT22;32066;49.474;11.106;2023-04-23T02:27:46;17.00;84.80
46356;DHT22;32066;49.474;11.106;2023-04-23T02:30:15;16.80;85.30
46356;DHT22;32066;49.474;11.106;2023-04-23T02:32:43;16.90;85.30
46356;DHT22;32066;49.474;11.106;2023-04-23T02:35:12;16.80;85.70
46356;DHT22;32066;49.474;11.106;2023-04-23T02:37:41;16.80;86.00
46356;DHT22;32066;49.474;11.106;2023-04-23T02:40:13;16.80;85.80
46356;DHT22;32066;49.474;11.106;2023-04-23T02:42:41;16.80;85.60
46356;DHT22;32066;49.474;11.106;2023-04-23T02:45:10;16.90;85.50
46356;DHT22;32066;49.474;11.106;2023-04-23T02:47:39;16.90;85.40
46356;DHT22;32066;49.474;11.106;2023-04-23T02:50:08;16.90;85.80
46356;DHT22;32066;49.474;11.106;2023-04-23T02:52:36;16.80;86.20
46356;DHT22;32066;49.474;11.106;2023-04-23T02:55:07;16.80;85.90
46356;DHT22;32066;49.474;11.106;2023-04-23T02:57:39;16.60;86.40
46356;DHT22;32066;49.474;11.106;2023-04-23T03:00:10;16.70;87.30
46356;DHT22;32066;49.474;11.106;2023-04-23T03:02:41;16.50;88.50
46356;DHT22;32066;49.474;11.106;2023-04-23T03:05:10;16.70;87.50
46356;DHT22;32066;49.474;11.106;2023-04-23T03:07:40;16.70;87.40
46356;DHT22;32066;49.474;11.106;2023-04-23T03:10:09;16.30;88.90
46356;DHT22;32066;49.474;11.106;2023-04-23T03:12:40;16.50;88.60
46356;DHT22;32066;49.474;11.106;2023-04-23T03:15:09;16.70;88.30
46356;DHT22;32066;49.474;11.106;2023-04-23T03:17:38;16.70;88.00
46356;DHT22;32066;49.474;11.106;2023-04-23T03:20:08;16.80;87.90
46356;DHT22;32066;49.474;11.106;2023-04-23T03:22:39;16.70;88.00
46356;DHT22;32066;49.474;11.106;2023-04-23T03:25:08;16.60;88.70
46356;DHT22;32066;49.474;11.106;2023-04-23T03:27:40;16.60;89.00
46356;DHT22;32066;49.474;11.106;2023-04-23T03:30:10;16.60;89.00
46356;DHT22;32066;49.474;11.106;2023-04-23T03:32:39;16.60;89.20
46356;DHT22;32066;49.474;11.106;2023-04-23T03:35:08;16.60;89.60
46356;DHT22;32066;49.474;11.106;2023-04-23T03:37:40;16.50;89.90
46356;DHT22;32066;49.474;11.106;2023-04-23T03:40:09;16.50;89.90
46356;DHT22;32066;49.474;11.106;2023-04-23T03:42:42;16.50;90.00
46356;DHT22;32066;49.474;11.106;2023-04-23T03:45:13;16.40;90.00
46356;DHT22;32066;49.474;11.106;2023-04-23T03:47:43;16.40;90.10
46356;DHT22;32066;49.474;11.106;2023-04-23T03:50:11;16.40;90.10
46356;DHT22;32066;49.474;11.106;2023-04-23T03:52:43;16.40;90.10
46356;DHT22;32066;49.474;11.106;2023-04-23T03:55:20;16.30;90.10
46356;DHT22;32066;49.474;11.106;2023-04-23T03:57:52;16.20;90.30
46356;DHT22;32066;49.474;11.106;2023-04-23T04:00:23;16.20;90.40
46356;DHT22;32066;49.474;11.106;2023-04-23T04:02:52;15.90;90.90
46356;DHT22;32066;49.474;11.106;2023-04-23T04:05:22;15.80;91.20
46356;DHT22;32066;49.474;11.106;2023-04-23T04:07:53;15.80;91.10
46356;DHT22;32066;49.474;11.106;2023-04-23T04:10:24;15.80;91.30
46356;DHT22;32066;49.474;11.106;2023-04-23T04:12:55;15.70;91.50
46356;DHT22;32066;49.474;11.106;2023-04-23T04:15:24;15.70;91.60
46356;DHT22;32066;49.474;11.106;2023-04-23T04:17:52;15.70;91.70
46356;DHT22;32066;49.474;11.106;2023-04-23T04:20:21;15.60;91.90
46356;DHT22;32066;49.474;11.106;2023-04-23T04:22:50;15.60;91.90
46356;DHT22;32066;49.474;11.106;2023-04-23T04:25:19;15.60;91.90
46356;DHT22;32066;49.474;11.106;2023-04-23T04:27:48;15.60;92.00
46356;DHT22;32066;49.474;11.106;2023-04-23T04:30:20;15.50;92.20
46356;DHT22;32066;49.474;11.106;2023-04-23T04:32:49;15.30;92.30
46356;DHT22;32066;49.474;11.106;2023-04-23T04:35:18;15.30;92.60
46356;DHT22;32066;49.474;11.106;2023-04-23T04:37:46;15.10;93.00
46356;DHT22;32066;49.474;11.106;2023-04-23T04:40:15;14.70;93.70
46356;DHT22;32066;49.474;11.106;2023-04-23T04:42:44;14.50;94.40
46356;DHT22;32066;49.474;11.106;2023-04-23T04:45:13;14.60;94.90
46356;DHT22;32066;49.474;11.106;2023-04-23T04:47:44;14.50;95.30
46356;DHT22;32066;49.474;11.106;2023-04-23T04:50:12;14.70;95.20
46356;DHT22;32066;49.474;11.106;2023-04-23T04:52:41;14.70;95.40
46356;DHT22;32066;49.474;11.106;2023-04-23T04:55:10;14.70;95.30
46356;DHT22;32066;49.474;11.106;2023-04-23T04:57:38;14.80;95.40
46356;DHT22;32066;49.474;11.106;2023-04-23T05:00:21;14.80;95.20
46356;DHT22;32066;49.474;11.106;2023-04-23T05:02:56;14.80;95.50
46356;DHT22;32066;49.474;11.106;2023-04-23T05:05:26;14.90;95.40
46356;DHT22;32066;49.474;11.106;2023-04-23T05:07:54;14.70;95.70
46356;DHT22;32066;49.474;11.106;2023-04-23T05:10:24;14.70;96.00
46356;DHT22;32066;49.474;11.106;2023-04-23T05:12:53;14.80;95.70
46356;DHT22;32066;49.474;11.106;2023-04-23T05:15:21;14.80;95.90
46356;DHT22;32066;49.474;11.106;2023-04-23T05:17:50;14.80;95.70
46356;DHT22;32066;49.474;11.106;2023-04-23T05:20:21;14.80;95.80
46356;DHT22;32066;49.474;11.106;2023-04-23T05:22:50;14.80;96.10
46356;DHT22;32066;49.474;11.106;2023-04-23T05:25:19;14.90;95.80
46356;DHT22;32066;49.474;11.106;2023-04-23T05:27:48;14.80;95.90
46356;DHT22;32066;49.474;11.106;2023-04-23T05:30:17;14.90;96.00
46356;DHT22;32066;49.474;11.106;2023-04-23T05:32:45;14.90;96.10
46356;DHT22;32066;49.474;11.106;2023-04-23T05:35:14;14.90;96.20
46356;DHT22;32066;49.474;11.106;2023-04-23T05:37:45;14.90;96.30
46356;DHT22;32066;49.474;11.106;2023-04-23T05:40:14;14.80;96.20
46356;DHT22;32066;49.474;11.106;2023-04-23T05:42:42;14.80;96.60
46356;DHT22;32066;49.474;11.106;2023-04-23T05:45:11;14.80;96.60
46356;DHT22;32066;49.474;11.106;2023-04-23T05:47:40;14.70;96.80
46356;DHT22;32066;49.474;11.106;2023-04-23T05:50:09;14.70;97.00
46356;DHT22;32066;49.474;11.106;2023-04-23T05:52:38;14.70;97.00
46356;DHT22;32066;49.474;11.106;2023-04-23T05:55:09;14.70;97.20
46356;DHT22;32066;49.474;11.106;2023-04-23T05:57:40;14.60;97.70
46356;DHT22;32066;49.474;11.106;2023-04-23T06:00:10;14.60;97.50
46356;DHT22;32066;49.474;11.106;2023-04-23T06:02:39;14.50;98.20
46356;DHT22;32066;49.474;11.106;2023-04-23T06:05:09;14.70;98.10
46356;DHT22;32066;49.474;11.106;2023-04-23T06:07:37;14.60;98.20
46356;DHT22;32066;49.474;11.106;2023-04-23T06:10:10;14.40;98.70
46356;DHT22;32066;49.474;11.106;2023-04-23T06:12:38;14.40;99.00
46356;DHT22;32066;49.474;11.106;2023-04-23T06:15:08;14.40;99.00
46356;DHT22;32066;49.474;11.106;2023-04-23T06:17:37;14.50;99.00
46356;DHT22;32066;49.474;11.106;2023-04-23T06:20:07;14.40;99.40
46356;DHT22;32066;49.474;11.106;2023-04-23T06:22:36;14.50;99.60
46356;DHT22;32066;49.474;11.106;2023-04-23T06:25:05;14.50;99.60
46356;DHT22;32066;49.474;11.106;2023-04-23T06:27:37;14.50;99.50
46356;DHT22;32066;49.474;11.106;2023-04-23T06:30:13;14.30;99.90
46356;DHT22;32066;49.474;11.106;2023-04-23T06:32:41;14.40;99.90
46356;DHT22;32066;49.474;11.106;2023-04-23T06:35:10;14.30;99.90
46356;DHT22;32066;49.474;11.106;2023-04-23T06:37:38;14.30;99.90
46356;DHT22;32066;49.474;11.106;2023-04-23T06:40:08;14.40;99.90
46356;DHT22;32066;49.474;11.106;2023-04-23T06:42:39;14.40;99.90
46356;DHT22;32066;49.474;11.106;2023-04-23T06:45:32;14.40;99.90
46356;DHT22;32066;49.474;11.106;2023-04-23T06:48:01;14.40;99.90
46356;DHT22;32066;49.474;11.106;2023-04-23T06:50:29;14.50;99.90
46356;DHT22;32066;49.474;11.106;2023-04-23T06:52:58;14.50;99.90
46356;DHT22;32066;49.474;11.106;2023-04-23T06:55:26;14.40;99.90
46356;DHT22;32066;49.474;11.106;2023-04-23T06:57:58;14.60;99.90
46356;DHT22;32066;49.474;11.106;2023-04-23T07:00:27;14.10;99.90
46356;DHT22;32066;49.474;11.106;2023-04-23T07:02:56;13.90;99.90
46356;DHT22;32066;49.474;11.106;2023-04-23T07:05:24;13.90;99.90
46356;DHT22;32066;49.474;11.106;2023-04-23T07:07:53;13.80;99.90
46356;DHT22;32066;49.474;11.106;2023-04-23T07:10:22;13.80;99.90
46356;DHT22;32066;49.474;11.106;2023-04-23T07:12:51;14.10;99.90
46356;DHT22;32066;49.474;11.106;2023-04-23T07:15:22;13.90;99.90
46356;DHT22;32066;49.474;11.106;2023-04-23T07:17:50;13.80;99.90
46356;DHT22;32066;49.474;11.106;2023-04-23T07:20:19;13.80;99.90
46356;DHT22;32066;49.474;11.106;2023-04-23T07:22:48;14.00;99.90
46356;DHT22;32066;49.474;11.106;2023-04-23T07:25:17;13.90;99.90
46356;DHT22;32066;49.474;11.106;2023-04-23T07:27:47;14.00;99.90
46356;DHT22;32066;49.474;11.106;2023-04-23T07:30:15;14.10;99.90
46356;DHT22;32066;49.474;11.106;2023-04-23T07:32:47;14.10;99.90
46356;DHT22;32066;49.474;11.106;2023-04-23T07:35:15;14.20;99.90
46356;DHT22;32066;49.474;11.106;2023-04-23T07:37:44;14.20;99.90
46356;DHT22;32066;49.474;11.106;2023-04-23T07:40:19;14.20;99.90
46356;DHT22;32066;49.474;11.106;2023-04-23T07:42:48;14.30;99.90
46356;DHT22;32066;49.474;11.106;2023-04-23T07:45:18;14.20;99.90
46356;DHT22;32066;49.474;11.106;2023-04-23T07:47:49;14.00;99.90
46356;DHT22;32066;49.474;11.106;2023-04-23T07:50:18;14.10;99.90
46356;DHT22;32066;49.474;11.106;2023-04-23T07:52:47;14.30;99.90
46356;DHT22;32066;49.474;11.106;2023-04-23T07:55:15;14.30;99.90
46356;DHT22;32066;49.474;11.106;2023-04-23T07:57:45;14.00;99.90
46356;DHT22;32066;49.474;11.106;2023-04-23T08:00:13;14.00;99.90
46356;DHT22;32066;49.474;11.106;2023-04-23T08:02:42;14.00;99.90
46356;DHT22;32066;49.474;11.106;2023-04-23T08:05:13;14.30;99.90
46356;DHT22;32066;49.474;11.106;2023-04-23T08:07:42;14.40;99.90
46356;DHT22;32066;49.474;11.106;2023-04-23T08:10:10;14.50;99.90
46356;DHT22;32066;49.474;11.106;2023-04-23T08:12:39;14.10;99.90
46356;DHT22;32066;49.474;11.106;2023-04-23T08:15:09;14.30;99.90
46356;DHT22;32066;49.474;11.106;2023-04-23T08:17:40;14.40;99.90
46356;DHT22;32066;49.474;11.106;2023-04-23T08:20:10;14.30;99.90
46356;DHT22;32066;49.474;11.106;2023-04-23T08:22:41;14.30;99.90
46356;DHT22;32066;49.474;11.106;2023-04-23T08:25:09;14.50;99.90
46356;DHT22;32066;49.474;11.106;2023-04-23T08:27:38;14.30;99.90
46356;DHT22;32066;49.474;11.106;2023-04-23T08:30:08;14.40;99.90
46356;DHT22;32066;49.474;11.106;2023-04-23T08:32:38;14.60;99.90
46356;DHT22;32066;49.474;11.106;2023-04-23T08:35:07;14.50;99.90
46356;DHT22;32066;49.474;11.106;2023-04-23T08:37:37;14.70;99.90
46356;DHT22;32066;49.474;11.106;2023-04-23T08:40:09;14.60;99.90
46356;DHT22;32066;49.474;11.106;2023-04-23T08:42:41;14.30;99.90
46356;DHT22;32066;49.474;11.106;2023-04-23T08:45:12;14.20;99.90
46356;DHT22;32066;49.474;11.106;2023-04-23T08:47:41;14.20;99.90
46356;DHT22;32066;49.474;11.106;2023-04-23T08:50:11;14.40;99.90
46356;DHT22;32066;49.474;11.106;2023-04-23T08:52:43;14.70;99.90
46356;DHT22;32066;49.474;11.106;2023-04-23T08:55:16;14.80;99.90
46356;DHT22;32066;49.474;11.106;2023-04-23T08:57:46;14.80;99.90
46356;DHT22;32066;49.474;11.106;2023-04-23T09:00:16;15.00;99.90
46356;DHT22;32066;49.474;11.106;2023-04-23T09:02:46;15.00;99.50
46356;DHT22;32066;49.474;11.106;2023-04-23T09:05:15;15.10;99.70
46356;DHT22;32066;49.474;11.106;2023-04-23T09:07:44;15.20;99.30
46356;DHT22;32066;49.474;11.106;2023-04-23T09:10:16;15.20;99.30
46356;DHT22;32066;49.474;11.106;2023-04-23T09:12:44;15.30;98.90
46356;DHT22;32066;49.474;11.106;2023-04-23T09:15:13;15.40;98.70
46356;DHT22;32066;49.474;11.106;2023-04-23T09:17:44;15.50;98.70
46356;DHT22;32066;49.474;11.106;2023-04-23T09:20:13;15.60;98.30
46356;DHT22;32066;49.474;11.106;2023-04-23T09:22:44;15.60;97.00
46356;DHT22;32066;49.474;11.106;2023-04-23T09:25:20;15.60;96.80
46356;DHT22;32066;49.474;11.106;2023-04-23T09:27:50;15.70;96.90
46356;DHT22;32066;49.474;11.106;2023-04-23T09:30:19;15.70;96.90
46356;DHT22;32066;49.474;11.106;2023-04-23T09:32:51;15.80;96.60
46356;DHT22;32066;49.474;11.106;2023-04-23T09:35:19;15.80;95.80
46356;DHT22;32066;49.474;11.106;2023-04-23T09:37:50;15.90;95.70
46356;DHT22;32066;49.474;11.106;2023-04-23T09:40:22;16.00;95.70
46356;DHT22;32066;49.474;11.106;2023-04-23T09:42:52;16.00;95.00
46356;DHT22;32066;49.474;11.106;2023-04-23T09:45:21;16.00;95.00
46356;DHT22;32066;49.474;11.106;2023-04-23T09:47:51;16.10;95.20
46356;DHT22;32066;49.474;11.106;2023-04-23T09:50:31;16.20;95.10
46356;DHT22;32066;49.474;11.106;2023-04-23T09:53:00;15.90;94.80
46356;DHT22;32066;49.474;11.106;2023-04-23T09:55:32;15.50;95.50
46356;DHT22;32066;49.474;11.106;2023-04-23T09:58:04;15.40;96.00
46356;DHT22;32066;49.474;11.106;2023-04-23T10:00:34;16.00;99.90
46356;DHT22;32066;49.474;11.106;2023-04-23T10:03:04;16.30;96.80
46356;DHT22;32066;49.474;11.106;2023-04-23T10:05:37;15.90;98.70
46356;DHT22;32066;49.474;11.106;2023-04-23T10:08:06;16.10;97.20
46356;DHT22;32066;49.474;11.106;2023-04-23T10:10:37;16.10;96.40
46356;DHT22;32066;49.474;11.106;2023-04-23T10:13:07;15.80;96.70
46356;DHT22;32066;49.474;11.106;2023-04-23T10:15:36;15.60;97.40
46356;DHT22;32066;49.474;11.106;2023-04-23T10:18:06;15.20;98.00
46356;DHT22;32066;49.474;11.106;2023-04-23T10:20:35;15.00;98.70
46356;DHT22;32066;49.474;11.106;2023-04-23T10:23:06;14.90;99.10
46356;DHT22;32066;49.474;11.106;2023-04-23T10:25:38;14.90;99.40
46356;DHT22;32066;49.474;11.106;2023-04-23T10:28:08;15.20;99.40
46356;DHT22;32066;49.474;11.106;2023-04-23T10:30:38;15.40;99.20
46356;DHT22;32066;49.474;11.106;2023-04-23T10:33:09;15.50;98.70
46356;DHT22;32066;49.474;11.106;2023-04-23T10:35:38;15.40;98.90
46356;DHT22;32066;49.474;11.106;2023-04-23T10:38:07;15.30;99.00
46356;DHT22;32066;49.474;11.106;2023-04-23T10:40:40;15.60;98.50
46356;DHT22;32066;49.474;11.106;2023-04-23T10:43:12;15.60;98.40
46356;DHT22;32066;49.474;11.106;2023-04-23T10:45:42;15.80;97.90
46356;DHT22;32066;49.474;11.106;2023-04-23T10:48:11;15.90;98.20
46356;DHT22;32066;49.474;11.106;2023-04-23T10:50:40;16.20;97.20
46356;DHT22;32066;49.474;11.106;2023-04-23T10:53:17;16.60;96.70
46356;DHT22;32066;49.474;11.106;2023-04-23T10:55:48;16.70;96.40
46356;DHT22;32066;49.474;11.106;2023-04-23T10:58:17;17.00;96.00
46356;DHT22;32066;49.474;11.106;2023-04-23T11:00:46;16.80;95.70
46356;DHT22;32066;49.474;11.106;2023-04-23T11:03:31;17.00;95.70
46356;DHT22;32066;49.474;11.106;2023-04-23T11:06:01;17.30;95.10
46356;DHT22;32066;49.474;11.106;2023-04-23T11:08:30;17.40;94.60
46356;DHT22;32066;49.474;11.106;2023-04-23T11:11:06;17.50;93.80
46356;DHT22;32066;49.474;11.106;2023-04-23T11:13:40;17.40;93.70
46356;DHT22;32066;49.474;11.106;2023-04-23T11:16:20;17.00;93.80
46356;DHT22;32066;49.474;11.106;2023-04-23T11:19:00;17.50;93.90
46356;DHT22;32066;49.474;11.106;2023-04-23T11:21:55;17.90;92.90
46356;DHT22;32066;49.474;11.106;2023-04-23T11:24:26;17.40;93.10
46356;DHT22;32066;49.474;11.106;2023-04-23T11:26:58;17.60;92.90
46356;DHT22;32066;49.474;11.106;2023-04-23T11:29:27;17.70;92.60
46356;DHT22;32066;49.474;11.106;2023-04-23T11:31:56;17.80;91.80
46356;DHT22;32066;49.474;11.106;2023-04-23T11:34:25;17.30;91.80
46356;DHT22;32066;49.474;11.106;2023-04-23T11:36:54;17.00;92.10
46356;DHT22;32066;49.474;11.106;2023-04-23T11:39:23;17.30;91.90
46356;DHT22;32066;49.474;11.106;2023-04-23T11:41:52;17.30;91.80
46356;DHT22;32066;49.474;11.106;2023-04-23T11:44:24;17.20;91.80
46356;DHT22;32066;49.474;11.106;2023-04-23T11:46:52;17.30;92.10
46356;DHT22;32066;49.474;11.106;2023-04-23T11:49:21;17.40;92.10
46356;DHT22;32066;49.474;11.106;2023-04-23T11:51:50;17.50;92.00
46356;DHT22;32066;49.474;11.106;2023-04-23T11:54:24;17.70;91.70
46356;DHT22;32066;49.474;11.106;2023-04-23T11:56:54;17.50;91.70
46356;DHT22;32066;49.474;11.106;2023-04-23T11:59:27;17.40;91.60
46356;DHT22;32066;49.474;11.106;2023-04-23T12:01:57;17.40;91.60
46356;DHT22;32066;49.474;11.106;2023-04-23T12:04:27;17.80;95.00
46356;DHT22;32066;49.474;11.106;2023-04-23T12:06:56;18.10;92.20
46356;DHT22;32066;49.474;11.106;2023-04-23T12:09:27;18.50;96.60
46356;DHT22;32066;49.474;11.106;2023-04-23T12:11:57;18.90;93.70
46356;DHT22;32066;49.474;11.106;2023-04-23T12:14:29;19.20;94.70
46356;DHT22;32066;49.474;11.106;2023-04-23T12:17:08;19.30;91.30
46356;DHT22;32066;49.474;11.106;2023-04-23T12:19:37;19.40;89.10
46356;DHT22;32066;49.474;11.106;2023-04-23T12:22:09;19.70;90.50
46356;DHT22;32066;49.474;11.106;2023-04-23T12:24:45;19.80;87.10
46356;DHT22;32066;49.474;11.106;2023-04-23T12:27:18;19.20;86.60
46356;DHT22;32066;49.474;11.106;2023-04-23T12:29:58;19.20;84.40
46356;DHT22;32066;49.474;11.106;2023-04-23T12:32:27;19.40;84.50
46356;DHT22;32066;49.474;11.106;2023-04-23T12:34:55;19.40;88.90
46356;DHT22;32066;49.474;11.106;2023-04-23T12:37:25;19.30;82.70
46356;DHT22;32066;49.474;11.106;2023-04-23T12:39:54;19.40;86.30
46356;DHT22;32066;49.474;11.106;2023-04-23T12:42:24;19.30;82.00
46356;DHT22;32066;49.474;11.106;2023-04-23T12:45:04;19.30;87.00
46356;DHT22;32066;49.474;11.106;2023-04-23T12:47:34;19.10;82.60
46356;DHT22;32066;49.474;11.106;2023-04-23T12:50:04;19.40;82.40
46356;DHT22;32066;49.474;11.106;2023-04-23T12:52:33;19.60;81.20
46356;DHT22;32066;49.474;11.106;2023-04-23T12:55:03;19.50;80.30
46356;DHT22;32066;49.474;11.106;2023-04-23T12:57:32;19.20;79.50
46356;DHT22;32066;49.474;11.106;2023-04-23T13:02:33;19.10;97.80
46356;DHT22;32066;49.474;11.106;2023-04-23T13:05:02;19.20;92.90
46356;DHT22;32066;49.474;11.106;2023-04-23T13:07:30;18.70;91.30
46356;DHT22;32066;49.474;11.106;2023-04-23T13:09:59;19.30;92.10
46356;DHT22;32066;49.474;11.106;2023-04-23T13:12:27;19.40;92.40
46356;DHT22;32066;49.474;11.106;2023-04-23T13:14:58;19.60;90.90
46356;DHT22;32066;49.474;11.106;2023-04-23T13:17:29;19.10;88.60
46356;DHT22;32066;49.474;11.106;2023-04-23T13:19:57;19.40;88.90
46356;DHT22;32066;49.474;11.106;2023-04-23T13:22:26;19.80;90.00
46356;DHT22;32066;49.474;11.106;2023-04-23T13:24:57;19.70;87.60
46356;DHT22;32066;49.474;11.106;2023-04-23T13:29:55;19.00;81.10
46356;DHT22;32066;49.474;11.106;2023-04-23T13:32:24;19.00;81.80
46356;DHT22;32066;49.474;11.106;2023-04-23T13:34:59;19.00;83.10
46356;DHT22;32066;49.474;11.106;2023-04-23T13:37:30;19.00;82.50
46356;DHT22;32066;49.474;11.106;2023-04-23T13:39:58;19.50;83.50
46356;DHT22;32066;49.474;11.106;2023-04-23T13:42:27;19.60;79.40
46356;DHT22;32066;49.474;11.106;2023-04-23T13:44:56;20.10;82.00
46356;DHT22;32066;49.474;11.106;2023-04-23T13:47:24;20.30;79.30
46356;DHT22;32066;49.474;11.106;2023-04-23T13:49:58;20.30;78.90
46356;DHT22;32066;49.474;11.106;2023-04-23T13:52:27;19.90;78.20
46356;DHT22;32066;49.474;11.106;2023-04-23T13:54:56;19.70;80.90
46356;DHT22;32066;49.474;11.106;2023-04-23T13:57:27;20.00;80.40
46356;DHT22;32066;49.474;11.106;2023-04-23T13:59:56;19.90;79.20
46356;DHT22;32066;49.474;11.106;2023-04-23T14:02:25;19.60;80.30
46356;DHT22;32066;49.474;11.106;2023-04-23T14:04:54;19.60;81.60
46356;DHT22;32066;49.474;11.106;2023-04-23T14:07:25;19.90;82.60
46356;DHT22;32066;49.474;11.106;2023-04-23T14:09:54;20.30;80.00
46356;DHT22;32066;49.474;11.106;2023-04-23T14:12:22;20.60;80.60
46356;DHT22;32066;49.474;11.106;2023-04-23T14:14:51;20.40;78.90
46356;DHT22;32066;49.474;11.106;2023-04-23T14:17:20;20.60;78.70
46356;DHT22;32066;49.474;11.106;2023-04-23T14:19:48;20.40;80.00
46356;DHT22;32066;49.474;11.106;2023-04-23T14:22:17;20.20;77.90
46356;DHT22;32066;49.474;11.106;2023-04-23T14:24:49;20.10;78.00
46356;DHT22;32066;49.474;11.106;2023-04-23T14:27:18;19.80;80.50
46356;DHT22;32066;49.474;11.106;2023-04-23T14:29:51;19.60;80.40
46356;DHT22;32066;49.474;11.106;2023-04-23T14:32:24;19.50;80.60
46356;DHT22;32066;49.474;11.106;2023-04-23T14:34:52;19.60;82.20
46356;DHT22;32066;49.474;11.106;2023-04-23T14:37:21;19.80;82.20
46356;DHT22;32066;49.474;11.106;2023-04-23T14:39:52;20.10;81.60
46356;DHT22;32066;49.474;11.106;2023-04-23T14:42:21;19.80;76.80
46356;DHT22;32066;49.474;11.106;2023-04-23T14:44:49;20.10;80.10
46356;DHT22;32066;49.474;11.106;2023-04-23T14:47:21;20.00;78.10
46356;DHT22;32066;49.474;11.106;2023-04-23T14:49:50;19.40;79.30
46356;DHT22;32066;49.474;11.106;2023-04-23T14:52:22;19.20;80.30
46356;DHT22;32066;49.474;11.106;2023-04-23T14:54:53;19.40;79.90
46356;DHT22;32066;49.474;11.106;2023-04-23T14:57:21;19.40;78.50
46356;DHT22;32066;49.474;11.106;2023-04-23T14:59:50;19.60;78.90
46356;DHT22;32066;49.474;11.106;2023-04-23T15:02:18;19.40;79.90
46356;DHT22;32066;49.474;11.106;2023-04-23T15:04:47;19.20;79.30
46356;DHT22;32066;49.474;11.106;2023-04-23T15:07:16;19.40;79.60
46356;DHT22;32066;49.474;11.106;2023-04-23T15:09:44;19.30;80.80
46356;DHT22;32066;49.474;11.106;2023-04-23T15:12:36;19.10;79.20
46356;DHT22;32066;49.474;11.106;2023-04-23T15:15:14;19.30;81.60
46356;DHT22;32066;49.474;11.106;2023-04-23T15:17:48;19.60;79.90
46356;DHT22;32066;49.474;11.106;2023-04-23T15:20:16;19.90;79.70
46356;DHT22;32066;49.474;11.106;2023-04-23T15:22:46;20.10;79.90
46356;DHT22;32066;49.474;11.106;2023-04-23T15:25:15;20.00;80.60
46356;DHT22;32066;49.474;11.106;2023-04-23T15:27:46;20.20;77.00
46356;DHT22;32066;49.474;11.106;2023-04-23T15:30:21;20.10;77.20
46356;DHT22;32066;49.474;11.106;2023-04-23T15:32:50;19.70;77.80
46356;DHT22;32066;49.474;11.106;2023-04-23T15:35:20;19.70;77.70
46356;DHT22;32066;49.474;11.106;2023-04-23T15:37:49;19.70;78.20